Time;durP1;ratioP1;P1;durP2;ratioP2;P2;SDS_P1;SDS_P2;PMS_P1;PMS_P2;Temp;Humidity;BMP_temperature;BMP_pressure;BME280_temperature;BME280_humidity;BME280_pressure;Samples;Min_cycle;Max_cycle;Signal;HPM_P1;HPM_P2
2022/12/27 00:00:15;;;;;;;;;;;6.30;99.90;;;;;;5063049;28;20032;-77
2022/12/27 00:02:41;;;;;;;53.47;31.02;;;6.30;99.90;;;;;;5046982;28;20000;-77
2022/12/27 00:05:07;;;;;;;;;;;6.50;99.90;;;;;;5046634;28;20056;-77
2022/12/27 00:07:33;;;;;;;63.67;39.33;;;6.50;99.90;;;;;;5046929;28;19915;-76
2022/12/27 00:09:59;;;;;;;;;;;6.50;99.90;;;;;;5062558;28;20032;-76
2022/12/27 00:12:24;;;;;;;57.50;33.80;;;6.50;99.90;;;;;;5045971;28;20297;-76
2022/12/27 00:14:50;;;;;;;;;;;6.40;99.90;;;;;;5047211;28;20049;-76
2022/12/27 00:17:16;;;;;;;79.97;45.75;;;6.40;99.90;;;;;;5045601;28;20365;-77
2022/12/27 00:19:41;;;;;;;;;;;6.40;99.90;;;;;;5047167;28;20466;-76
2022/12/27 00:22:07;;;;;;;82.97;43.38;;;6.40;99.90;;;;;;5046276;28;19912;-76
2022/12/27 00:24:34;;;;;;;;;;;6.40;99.90;;;;;;5047260;28;20478;-76
2022/12/27 00:26:59;;;;;;;100.55;50.50;;;6.30;99.90;;;;;;5046055;28;20369;-76
2022/12/27 00:29:25;;;;;;;;;;;6.30;99.90;;;;;;5046580;28;20044;-76
2022/12/27 00:31:50;;;;;;;173.10;75.10;;;6.30;99.90;;;;;;5046501;28;19959;-76
2022/12/27 00:34:16;;;;;;;;;;;6.30;99.90;;;;;;5063281;28;20055;-76
2022/12/27 00:36:42;;;;;;;129.43;62.15;;;6.30;99.90;;;;;;5045957;28;20277;-76
2022/12/27 00:39:08;;;;;;;;;;;6.30;99.90;;;;;;5047498;28;20823;-77
2022/12/27 00:41:34;;;;;;;123.18;59.42;;;6.30;99.90;;;;;;5047100;28;19905;-76
2022/12/27 00:43:59;;;;;;;;;;;6.20;99.90;;;;;;5063748;28;20032;-76
2022/12/27 00:46:25;;;;;;;119.45;56.20;;;6.30;99.90;;;;;;5047573;28;19905;-76
2022/12/27 00:48:51;;;;;;;;;;;6.30;99.90;;;;;;5047698;28;20488;-76
2022/12/27 00:51:19;;;;;;;78.63;41.25;;;6.30;99.90;;;;;;5046396;28;20289;-77
2022/12/27 00:53:47;;;;;;;84.28;43.92;;;6.30;99.90;;;;;;5046006;28;20029;-77
2022/12/27 00:56:16;;;;;;;86.43;42.92;;;6.30;99.90;;;;;;5047285;28;20025;-76
2022/12/27 00:58:42;;;;;;;78.93;39.55;;;6.30;99.90;;;;;;5047252;28;20105;-76
2022/12/27 01:01:09;;;;;;;;;;;6.30;99.90;;;;;;5063729;28;20472;-76
2022/12/27 01:03:35;;;;;;;;;;;6.30;99.90;;;;;;5047938;28;20412;-76
2022/12/27 01:06:16;;;;;;;54.92;29.02;;;6.30;99.90;;;;;;5047464;28;19908;-76
2022/12/27 01:08:42;;;;;;;52.90;29.30;;;6.30;99.90;;;;;;5051273;28;20083;-77
2022/12/27 01:11:09;;;;;;;56.95;33.22;;;6.30;99.90;;;;;;5066315;28;20075;-75
2022/12/27 01:13:35;;;;;;;50.95;29.40;;;6.30;99.90;;;;;;5050173;28;20025;-76
2022/12/27 01:16:01;;;;;;;68.53;33.47;;;6.30;99.90;;;;;;5051336;28;20056;-76
2022/12/27 01:18:26;;;;;;;;;;;6.30;99.90;;;;;;5051787;28;20398;-76
2022/12/27 01:20:52;;;;;;;54.42;28.42;;;6.30;99.90;;;;;;5050714;28;20288;-76
2022/12/27 01:23:18;;;;;;;;;;;6.30;99.90;;;;;;5049665;28;20033;-77
2022/12/27 01:25:44;;;;;;;65.85;34.05;;;6.30;99.90;;;;;;5051090;28;20371;-77
2022/12/27 01:28:09;;;;;;;;;;;6.30;99.90;;;;;;5067168;28;20620;-76
2022/12/27 01:30:35;;;;;;;52.08;30.35;;;6.40;99.90;;;;;;5050420;28;19904;-76
2022/12/27 01:33:00;;;;;;;;;;;6.40;99.90;;;;;;5049550;28;20125;-76
2022/12/27 01:35:26;;;;;;;55.47;31.73;;;6.40;99.90;;;;;;5049771;28;19994;-76
2022/12/27 01:37:52;;;;;;;;;;;6.40;99.90;;;;;;5065938;28;20065;-76
2022/12/27 01:40:17;;;;;;;55.33;31.42;;;6.40;99.90;;;;;;5047955;28;19912;-76
2022/12/27 01:42:52;;;;;;;;;;;6.30;99.90;;;;;;5047998;28;20025;-77
2022/12/27 01:45:23;;;;;;;63.53;36.95;;;6.30;99.90;;;;;;5049187;28;20505;-76
2022/12/27 01:47:51;;;;;;;77.20;42.08;;;6.30;99.90;;;;;;5047614;28;20029;-77
2022/12/27 01:50:34;;;;;;;59.58;34.67;;;6.30;99.90;;;;;;5048112;28;20036;-76
2022/12/27 01:53:11;;;;;;;81.97;41.28;;;6.30;99.90;;;;;;5064266;28;20033;-76
2022/12/27 01:55:58;;;;;;;61.78;34.20;;;6.30;99.90;;;;;;5047636;28;20029;-76
2022/12/27 01:58:44;;;;;;;59.50;33.55;;;6.30;99.90;;;;;;5046972;28;20095;-76
2022/12/27 02:01:15;;;;;;;72.90;38.35;;;6.30;99.90;;;;;;5064512;28;20052;-77
2022/12/27 02:03:45;;;;;;;79.25;42.20;;;6.30;99.90;;;;;;5048828;28;20139;-76
2022/12/27 02:06:12;;;;;;;61.42;31.75;;;6.30;99.90;;;;;;5047020;28;20029;-76
2022/12/27 02:09:12;;;;;;;57.95;32.00;;;6.40;99.90;;;;;;5047342;28;20033;-76
2022/12/27 02:11:51;;;;;;;44.53;26.75;;;6.50;99.90;;;;;;5048777;28;20533;-76
2022/12/27 02:14:35;;;;;;;34.47;20.10;;;6.60;99.90;;;;;;5047637;28;20032;-76
2022/12/27 02:17:11;;;;;;;41.95;23.30;;;6.80;99.90;;;;;;5048679;28;20044;-76
2022/12/27 02:19:39;;;;;;;42.03;23.63;;;6.80;99.90;;;;;;5064192;28;20036;-77
2022/12/27 02:22:19;;;;;;;37.65;21.90;;;6.80;99.90;;;;;;5047356;28;20573;-76
2022/12/27 02:24:51;;;;;;;46.42;27.40;;;6.80;99.90;;;;;;5047338;28;20029;-76
2022/12/27 02:27:49;;;;;;;51.28;30.00;;;6.80;99.90;;;;;;5049276;28;20060;-76
2022/12/27 02:30:15;;;;;;;45.35;25.63;;;6.80;99.90;;;;;;5049135;28;20017;-76
2022/12/27 02:32:48;;;;;;;;;;;6.80;99.90;;;;;;5049411;28;20040;-76
2022/12/27 02:35:18;;;;;;;39.10;22.55;;;6.80;99.90;;;;;;5047169;28;19915;-76
2022/12/27 02:37:49;;;;;;;36.05;21.33;;;6.80;99.90;;;;;;5047170;28;20064;-76
2022/12/27 02:59:13;;;;;;;24.20;12.65;;;7.40;99.90;;;;;;5048546;28;20071;-76
2022/12/27 03:05:06;;;;;;;16.88;11.07;;;7.40;99.90;;;;;;5049106;28;20524;-76
2022/12/27 03:07:50;;;;;;;17.33;10.75;;;7.30;99.90;;;;;;5047724;28;20061;-76
2022/12/27 03:16:57;;;;;;;11.63;6.68;;;7.40;99.90;;;;;;5047686;28;20087;-77
2022/12/27 03:25:26;;;;;;;;;;;7.70;99.90;;;;;;5049037;28;20154;-77
2022/12/27 03:33:36;;;;;;;1.17;0.60;;;8.30;99.90;;;;;;5048753;28;20405;-75
2022/12/27 03:39:32;;;;;;;5.22;3.72;;;8.90;99.90;;;;;;5047839;28;20528;-77
2022/12/27 03:45:01;;;;;;;2.78;1.25;;;9.00;99.90;;;;;;5047849;28;20036;-77
2022/12/27 03:47:45;;;;;;;;;;;9.00;99.90;;;;;;5048455;28;20029;-77
2022/12/27 03:50:21;;;;;;;2.08;0.68;;;9.00;99.90;;;;;;5046373;28;20258;-76
2022/12/27 03:53:11;;;;;;;1.73;1.00;;;9.10;99.90;;;;;;5045606;28;20025;-77
2022/12/27 03:55:37;;;;;;;2.25;0.50;;;9.20;99.90;;;;;;5047451;28;20575;-76
2022/12/27 03:58:03;;;;;;;1.67;0.50;;;9.30;99.90;;;;;;5046883;28;20040;-76
2022/12/27 04:00:29;;;;;;;1.30;0.57;;;9.30;99.90;;;;;;5047647;28;20478;-76
2022/12/27 04:02:55;;;;;;;;;;;9.30;99.90;;;;;;5045223;28;20028;-76
2022/12/27 04:05:21;;;;;;;2.22;0.70;;;9.40;99.90;;;;;;5046430;28;19909;-76
2022/12/27 04:35:07;;;;;;;15.25;9.25;;;7.80;99.90;;;;;;5024381;28;20063;-76
2022/12/27 04:37:33;;;;;;;;;;;7.70;99.90;;;;;;5035227;28;20603;-76
2022/12/27 04:56:30;;;;;;;9.13;5.32;;;7.40;99.90;;;;;;5046198;28;20520;-76
2022/12/27 05:04:25;;;;;;;8.85;4.68;;;7.60;99.90;;;;;;5045963;28;20116;-76
2022/12/27 05:06:50;;;;;;;11.00;4.88;;;7.80;99.90;;;;;;5044480;28;20060;-77
2022/12/27 05:14:46;;;;;;;5.85;3.30;;;8.00;99.90;;;;;;5029729;28;20075;-76
2022/12/27 05:17:12;;;;;;;;;;;8.20;99.90;;;;;;5052805;28;20131;-76
2022/12/27 05:19:37;;;;;;;6.80;4.38;;;8.30;99.90;;;;;;5050620;28;20285;-77
2022/12/27 05:27:31;;;;;;;7.45;4.38;;;8.30;99.90;;;;;;5051517;28;20078;-76
2022/12/27 05:29:57;;;;;;;;;;;8.40;99.90;;;;;;5051009;28;20036;-76
2022/12/27 05:32:22;;;;;;;8.20;4.47;;;8.30;99.90;;;;;;5052029;28;20323;-77
2022/12/27 05:34:48;;;;;;;;;;;8.40;99.90;;;;;;5052604;28;20442;-76
2022/12/27 05:37:14;;;;;;;7.95;3.80;;;8.40;99.90;;;;;;5051685;28;20391;-76
2022/12/27 05:39:39;;;;;;;;;;;8.40;99.90;;;;;;5052180;28;20044;-76
2022/12/27 05:42:05;;;;;;;6.30;3.53;;;8.40;99.90;;;;;;5050685;28;19911;-76
2022/12/27 05:44:30;;;;;;;;;;;8.30;99.90;;;;;;5052216;28;20421;-76
2022/12/27 05:46:56;;;;;;;6.38;3.70;;;8.30;99.90;;;;;;5051978;28;20377;-76
2022/12/27 05:49:22;;;;;;;;;;;8.10;99.90;;;;;;5052496;28;20486;-77
2022/12/27 05:51:47;;;;;;;7.05;4.13;;;8.10;99.90;;;;;;5051258;28;20284;-77
2022/12/27 05:54:13;;;;;;;;;;;8.00;99.90;;;;;;5051106;28;20059;-76
2022/12/27 05:56:39;;;;;;;9.05;5.00;;;7.80;99.90;;;;;;5052693;28;19923;-76
2022/12/27 05:59:06;;;;;;;;;;;7.70;99.90;;;;;;5051247;28;20037;-76
2022/12/27 06:01:32;;;;;;;6.07;4.18;;;7.60;99.90;;;;;;5051677;28;19920;-76
2022/12/27 06:03:58;;;;;;;5.35;2.55;;;7.50;99.90;;;;;;5066648;28;20040;-76
2022/12/27 06:06:24;;;;;;;;;;;7.50;99.90;;;;;;5052960;28;20379;-77
2022/12/27 06:08:49;;;;;;;4.85;2.25;;;7.60;99.90;;;;;;5050937;28;20012;-76
2022/12/27 06:11:16;;;;;;;;;;;7.70;99.90;;;;;;5051507;28;20036;-76
2022/12/27 06:13:47;;;;;;;4.88;2.63;;;7.80;99.90;;;;;;5051952;28;19912;-76
2022/12/27 06:16:12;;;;;;;7.03;4.57;;;7.90;99.90;;;;;;5051143;28;20052;-77
2022/12/27 06:18:39;;;;;;;;;;;7.90;99.90;;;;;;5068298;28;20048;-77
2022/12/27 06:21:07;;;;;;;5.93;3.47;;;8.00;99.90;;;;;;5051464;28;19946;-76
2022/12/27 06:23:35;;;;;;;8.77;2.95;;;8.00;99.90;;;;;;5050923;28;20028;-77
2022/12/27 06:26:05;;;;;;;6.43;2.92;;;8.00;99.90;;;;;;5050812;28;20032;-76
2022/12/27 06:28:31;;;;;;;5.60;3.20;;;8.00;99.90;;;;;;5050930;28;20028;-76
2022/12/27 06:30:58;;;;;;;;;;;8.00;99.90;;;;;;5049667;28;20040;-76
2022/12/27 06:33:24;;;;;;;5.95;2.85;;;8.00;99.90;;;;;;5049399;28;20414;-76
2022/12/27 06:35:49;;;;;;;;;;;8.00;99.90;;;;;;5049347;28;20021;-76
2022/12/27 06:38:15;;;;;;;5.13;2.65;;;8.10;99.90;;;;;;5049313;28;20297;-76
2022/12/27 06:40:40;;;;;;;;;;;8.10;99.90;;;;;;5049595;28;20589;-77
2022/12/27 06:43:06;;;;;;;4.32;2.45;;;8.10;99.90;;;;;;5048910;28;20332;-76
2022/12/27 06:45:32;;;;;;;;;;;8.10;99.90;;;;;;5049052;28;20402;-75
2022/12/27 06:47:57;;;;;;;3.55;1.98;;;8.20;99.90;;;;;;5049456;28;20282;-76
2022/12/27 06:50:23;;;;;;;;;;;8.20;99.90;;;;;;5050653;28;20500;-76
2022/12/27 06:52:49;;;;;;;4.53;1.90;;;8.10;99.90;;;;;;5048775;28;19909;-77
2022/12/27 06:55:14;;;;;;;;;;;8.20;99.90;;;;;;5065923;28;20032;-76
2022/12/27 06:57:40;;;;;;;4.97;2.70;;;8.20;99.90;;;;;;5049877;28;20686;-76
2022/12/27 07:00:06;;;;;;;;;;;8.10;99.90;;;;;;5050715;28;20025;-75
2022/12/27 07:02:31;;;;;;;10.57;2.05;;;8.10;99.90;;;;;;5050069;28;19908;-76
2022/12/27 07:04:57;;;;;;;;;;;8.10;99.90;;;;;;5049515;28;20040;-75
2022/12/27 07:07:23;;;;;;;3.35;2.00;;;8.00;99.90;;;;;;5050244;28;19905;-75
2022/12/27 07:09:48;;;;;;;;;;;8.20;99.90;;;;;;5050202;28;20021;-76
2022/12/27 07:12:14;;;;;;;3.25;1.50;;;8.20;99.90;;;;;;5048784;28;19905;-77
2022/12/27 07:14:39;;;;;;;;;;;8.30;99.90;;;;;;5050914;28;20036;-76
2022/12/27 07:17:05;;;;;;;2.33;1.00;;;8.50;99.90;;;;;;5049036;28;20015;-75
2022/12/27 07:19:31;;;;;;;;;;;8.70;99.90;;;;;;5050505;28;20394;-76
2022/12/27 07:21:56;;;;;;;2.33;1.10;;;8.90;99.90;;;;;;5048935;28;19919;-77
2022/12/27 07:24:22;;;;;;;;;;;9.20;99.90;;;;;;5049739;28;20033;-76
2022/12/27 07:26:48;;;;;;;4.43;1.13;;;9.40;99.90;;;;;;5049026;28;19913;-76
2022/12/27 07:29:13;;;;;;;;;;;9.60;99.90;;;;;;5049537;28;20035;-77
2022/12/27 07:31:39;;;;;;;4.45;1.23;;;9.70;99.90;;;;;;5050025;28;19908;-76
2022/12/27 07:34:05;;;;;;;;;;;9.80;99.90;;;;;;5049271;28;20147;-77
2022/12/27 07:36:34;;;;;;;3.08;1.17;;;9.90;99.90;;;;;;5049869;28;19911;-76
2022/12/27 07:39:00;;;;;;;4.10;1.27;;;9.90;99.90;;;;;;5049408;28;20064;-77
2022/12/27 07:41:25;;;;;;;;;;;9.80;99.90;;;;;;5049913;28;20473;-76
2022/12/27 07:43:51;;;;;;;2.13;1.13;;;9.80;99.90;;;;;;5048156;28;19909;-75
2022/12/27 07:46:18;;;;;;;;;;;9.90;99.90;;;;;;5050162;28;20133;-75
2022/12/27 07:48:46;;;;;;;4.05;1.02;;;10.10;99.90;;;;;;5049058;28;20325;-76
2022/12/27 07:51:12;;;;;;;3.17;1.40;;;10.30;99.90;;;;;;5049220;28;20057;-76
2022/12/27 07:53:38;;;;;;;2.00;0.90;;;10.50;99.90;;;;;;5048648;28;20036;-76
2022/12/27 07:56:04;;;;;;;;;;;10.70;99.90;;;;;;5064850;28;20028;-75
2022/12/27 07:58:33;;;;;;;2.80;1.33;;;10.70;99.90;;;;;;5047857;28;19916;-75
2022/12/27 08:00:59;;;;;;;2.72;1.13;;;10.80;99.90;;;;;;5063949;28;20851;-76
2022/12/27 08:03:25;;;;;;;;;;;10.80;99.90;;;;;;5047962;28;20120;-76
2022/12/27 08:05:54;;;;;;;2.70;1.05;;;10.90;99.90;;;;;;5048505;28;20369;-76
2022/12/27 08:08:23;;;;;;;3.25;0.98;;;11.00;99.90;;;;;;5048749;28;20025;-76
2022/12/27 08:10:49;;;;;;;1.92;0.80;;;11.10;99.90;;;;;;5064413;28;20511;-77
2022/12/27 08:13:15;;;;;;;;;;;11.20;99.90;;;;;;5047820;28;20532;-76
2022/12/27 08:15:42;;;;;;;3.75;0.80;;;11.40;99.90;;;;;;5046492;28;19920;-77
2022/12/27 08:18:08;;;;;;;1.85;0.80;;;11.40;99.90;;;;;;5048657;28;20045;-76
2022/12/27 08:20:34;;;;;;;2.05;0.60;;;11.50;99.90;;;;;;5048488;28;20095;-76
2022/12/27 08:23:00;;;;;;;1.70;0.70;;;11.70;99.90;;;;;;5047313;28;20033;-76
2022/12/27 08:25:27;;;;;;;;;;;11.90;99.90;;;;;;5047589;28;20032;-77
2022/12/27 08:28:00;;;;;;;1.45;0.70;;;12.00;99.90;;;;;;5048014;28;19962;-77
2022/12/27 08:30:26;;;;;;;1.25;0.50;;;12.30;99.90;;;;;;5046859;28;20032;-76
2022/12/27 08:32:52;;;;;;;;;;;12.40;99.90;;;;;;5047394;28;20074;-76
2022/12/27 08:35:17;;;;;;;0.82;0.40;;;12.30;99.90;;;;;;5048271;28;20415;-77
2022/12/27 08:37:43;;;;;;;;;;;12.20;99.90;;;;;;5063888;28;20037;-77
2022/12/27 08:40:09;;;;;;;2.20;0.60;;;12.00;99.90;;;;;;5048104;28;20028;-75
2022/12/27 08:42:34;;;;;;;2.78;0.45;;;11.90;99.90;;;;;;5048404;28;20083;-77
2022/12/27 08:45:00;;;;;;;;;;;11.80;99.90;;;;;;5048751;28;20025;-75
2022/12/27 08:47:26;;;;;;;0.88;0.45;;;11.80;99.90;;;;;;5046835;28;19962;-76
2022/12/27 08:49:51;;;;;;;;;;;11.60;99.90;;;;;;5047109;28;20032;-75
2022/12/27 08:52:17;;;;;;;4.80;0.73;;;11.60;99.90;;;;;;5048370;28;19915;-76
2022/12/27 08:54:42;;;;;;;;;;;11.50;99.90;;;;;;5048133;28;20043;-76
2022/12/27 08:57:08;;;;;;;1.83;0.50;;;11.40;99.90;;;;;;5047986;28;19913;-76
2022/12/27 08:59:33;;;;;;;;;;;11.30;99.90;;;;;;5048538;28;20040;-76
2022/12/27 09:01:59;;;;;;;3.28;0.90;;;11.20;99.90;;;;;;5046603;28;19909;-76
2022/12/27 09:04:24;;;;;;;;;;;11.10;99.90;;;;;;5048914;28;20025;-76
2022/12/27 09:06:50;;;;;;;1.20;0.60;;;11.00;99.90;;;;;;5048510;28;19908;-75
2022/12/27 09:09:16;;;;;;;;;;;11.00;99.90;;;;;;5064395;28;20035;-76
2022/12/27 09:11:41;;;;;;;1.73;0.60;;;11.00;99.90;;;;;;5048094;28;20388;-76
2022/12/27 09:14:08;;;;;;;;;;;11.00;99.90;;;;;;5048805;28;20128;-76
2022/12/27 09:16:34;;;;;;;1.63;0.68;;;11.00;99.90;;;;;;5048123;28;19931;-76
2022/12/27 09:19:01;;;;;;;2.53;1.02;;;11.00;99.90;;;;;;5047115;28;20037;-76
2022/12/27 09:21:30;;;;;;;2.22;0.80;;;11.00;99.90;;;;;;5046696;28;20529;-76
2022/12/27 09:23:56;;;;;;;12.00;0.93;;;11.00;99.90;;;;;;5046765;28;20059;-75
2022/12/27 09:26:25;;;;;;;4.32;0.80;;;10.90;99.90;;;;;;5046694;28;20111;-75
2022/12/27 09:28:51;;;;;;;1.92;0.75;;;10.90;99.90;;;;;;5051444;28;20083;-75
2022/12/27 09:31:18;;;;;;;3.08;0.60;;;10.70;99.90;;;;;;5050316;28;20398;-76
2022/12/27 09:33:44;;;;;;;4.47;0.80;;;10.70;99.90;;;;;;5052103;28;20559;-76
2022/12/27 09:36:11;;;;;;;;;;;10.70;99.90;;;;;;5051297;28;20105;-76
2022/12/27 09:38:37;;;;;;;2.83;0.90;;;10.70;99.90;;;;;;5051876;28;19940;-75
2022/12/27 09:41:11;;;;;;;3.97;0.50;;;10.70;99.90;;;;;;5051335;28;20086;-75
2022/12/27 09:43:43;;;;;;;2.47;0.90;;;10.70;99.90;;;;;;5050091;28;20033;-76
2022/12/27 09:46:20;;;;;;;1.90;0.70;;;10.70;99.90;;;;;;5052144;28;20520;-76
2022/12/27 09:48:48;;;;;;;5.60;0.80;;;10.70;99.90;;;;;;5067462;28;20028;-75
2022/12/27 09:51:25;;;;;;;1.52;0.47;;;10.70;99.90;;;;;;5051464;28;20032;-76
2022/12/27 09:54:04;;;;;;;1.38;0.50;;;10.60;99.90;;;;;;5050980;28;20059;-77
2022/12/27 09:56:33;;;;;;;0.93;0.40;;;10.50;99.90;;;;;;5050890;28;20687;-76
2022/12/27 09:59:41;;;;;;;0.93;0.40;;;10.50;99.90;;;;;;5052015;28;20505;-76
2022/12/27 10:02:20;;;;;;;0.98;0.40;;;10.50;99.90;;;;;;5032269;28;20120;-76
2022/12/27 10:04:46;;;;;;;0.85;0.30;;;10.50;99.90;;;;;;5050303;28;20029;-75
2022/12/27 10:07:32;;;;;;;;;;;10.50;99.90;;;;;;5051409;28;20591;-76
2022/12/27 10:10:05;;;;;;;2.22;0.73;;;10.40;99.90;;;;;;5045196;28;19919;-76
2022/12/27 10:13:00;;;;;;;1.73;0.50;;;10.30;99.90;;;;;;5052077;28;20025;-75
2022/12/27 10:15:47;;;;;;;4.25;0.57;;;10.20;99.90;;;;;;5042897;28;20111;-76
2022/12/27 10:18:31;;;;;;;;;;;10.10;99.90;;;;;;5030902;28;20049;-76
2022/12/27 10:21:21;;;;;;;2.30;0.70;;;10.20;99.90;;;;;;5051173;28;19913;-76
2022/12/27 10:23:56;;;;;;;9.57;0.80;;;10.10;99.90;;;;;;5052782;28;20028;-76
2022/12/27 10:26:22;;;;;;;6.45;1.88;;;10.20;99.90;;;;;;5051538;28;20118;-76
2022/12/27 10:28:58;;;;;;;;;;;10.00;99.90;;;;;;5050987;28;20032;-77
2022/12/27 10:31:25;;;;;;;2.10;0.45;;;9.90;99.90;;;;;;5050874;28;19915;-75
2022/12/27 10:33:52;;;;;;;1.20;0.55;;;9.70;99.90;;;;;;5052823;28;20127;-76
2022/12/27 10:36:29;;;;;;;1.00;0.30;;;9.70;99.90;;;;;;5051559;28;20327;-76
2022/12/27 10:38:55;;;;;;;2.58;0.47;;;9.70;99.90;;;;;;5051561;28;20151;-77
2022/12/27 10:41:21;;;;;;;;;;;9.70;99.40;;;;;;5051918;28;20481;-76
2022/12/27 10:43:51;;;;;;;0.90;0.52;;;9.70;99.90;;;;;;5050912;28;19909;-76
2022/12/27 10:46:25;;;;;;;2.38;0.55;;;9.60;99.60;;;;;;5052078;28;20032;-76
2022/12/27 10:49:19;;;;;;;0.60;0.32;;;9.60;99.10;;;;;;5067257;28;20029;-75
2022/12/27 10:51:45;;;;;;;1.63;0.38;;;9.60;99.90;;;;;;5050066;28;20401;-74
2022/12/27 10:54:26;;;;;;;0.80;0.40;;;9.60;99.70;;;;;;5051281;28;20025;-75
2022/12/27 10:56:53;;;;;;;2.13;0.38;;;9.60;99.80;;;;;;5049804;28;20029;-76
2022/12/27 10:59:23;;;;;;;0.85;0.32;;;9.60;98.70;;;;;;5051377;28;20060;-76
2022/12/27 11:02:27;;;;;;;4.22;0.63;;;9.50;99.60;;;;;;5051493;28;20033;-75
2022/12/27 11:04:58;;;;;;;0.60;0.30;;;9.50;99.90;;;;;;5051858;28;20036;-75
2022/12/27 11:07:32;;;;;;;2.75;0.30;;;9.50;96.10;;;;;;5068899;28;20055;-75
2022/12/27 11:10:15;;;;;;;2.35;0.60;;;9.50;94.30;;;;;;5047697;28;20159;-75
2022/12/27 11:13:06;;;;;;;1.88;0.50;;;9.40;93.90;;;;;;5050202;28;20033;-75
2022/12/27 11:15:39;;;;;;;0.82;0.40;;;9.40;92.80;;;;;;5049721;28;20510;-76
2022/12/27 11:18:20;;;;;;;0.50;0.30;;;9.40;92.70;;;;;;5048327;28;20451;-74
2022/12/27 11:20:54;;;;;;;8.27;0.38;;;9.40;93.30;;;;;;5048123;28;20033;-75
2022/12/27 11:23:22;;;;;;;0.75;0.40;;;9.30;93.20;;;;;;5049015;28;20025;-75
2022/12/27 11:25:52;;;;;;;1.30;0.43;;;9.30;94.40;;;;;;5065789;28;20090;-75
2022/12/27 11:28:38;;;;;;;1.42;0.32;;;9.20;95.40;;;;;;5050793;28;20029;-74
2022/12/27 11:31:11;;;;;;;2.38;0.30;;;9.20;94.60;;;;;;5050229;28;20046;-74
2022/12/27 11:33:46;;;;;;;1.50;0.40;;;9.20;95.10;;;;;;5049451;28;20082;-76
2022/12/27 11:36:14;;;;;;;0.77;0.40;;;9.20;94.60;;;;;;5050410;28;20400;-74
2022/12/27 11:38:43;;;;;;;4.38;0.40;;;9.20;95.30;;;;;;5049995;28;20037;-74
2022/12/27 11:41:18;;;;;;;4.95;0.47;;;9.20;95.80;;;;;;5050496;28;20559;-74
2022/12/27 11:43:48;;;;;;;2.47;0.70;;;9.20;96.30;;;;;;5050588;28;20527;-74
2022/12/27 11:46:20;;;;;;;5.82;2.10;;;9.10;95.60;;;;;;5048575;28;20021;-74
2022/12/27 11:48:51;;;;;;;1.55;0.45;;;9.00;95.50;;;;;;5048901;28;20025;-74
2022/12/27 11:51:17;;;;;;;2.17;0.60;;;9.00;96.00;;;;;;5049434;28;20553;-74
2022/12/27 11:53:48;;;;;;;;;;;9.10;95.70;;;;;;5050194;28;20104;-75
2022/12/27 11:56:18;;;;;;;4.57;0.68;;;9.10;94.60;;;;;;5049054;28;19915;-74
2022/12/27 11:59:00;;;;;;;1.23;0.50;;;9.00;93.30;;;;;;5048252;28;20094;-75
2022/12/27 12:01:50;;;;;;;0.60;0.30;;;9.00;95.30;;;;;;5049129;28;20104;-75
2022/12/27 12:04:21;;;;;;;0.68;0.32;;;9.00;95.40;;;;;;5047937;28;20048;-74
2022/12/27 12:07:14;;;;;;;1.13;0.30;;;9.00;95.90;;;;;;5047227;28;20044;-75
2022/12/27 12:10:27;;;;;;;3.42;0.73;;;9.00;95.80;;;;;;5047981;28;20029;-75
2022/12/27 12:12:55;;;;;;;3.05;0.60;;;8.90;93.90;;;;;;5002439;28;20037;-75
2022/12/27 12:15:52;;;;;;;3.47;0.85;;;9.00;94.50;;;;;;5044066;28;20129;-75
2022/12/27 12:18:42;;;;;;;1.85;0.60;;;9.00;94.80;;;;;;5045397;28;20079;-76
2022/12/27 12:21:28;;;;;;;3.25;0.50;;;8.90;96.10;;;;;;5045479;28;20757;-76
2022/12/27 12:24:31;;;;;;;1.92;0.57;;;8.90;95.20;;;;;;5045848;28;20051;-76
2022/12/27 12:27:25;;;;;;;1.88;0.57;;;8.90;94.70;;;;;;5045691;28;20033;-75
2022/12/27 12:29:53;;;;;;;2.25;0.70;;;8.90;94.20;;;;;;5046753;28;20040;-76
2022/12/27 12:32:22;;;;;;;1.42;0.52;;;8.90;93.90;;;;;;5047260;28;20052;-75
2022/12/27 12:35:00;;;;;;;2.95;1.10;;;8.90;94.60;;;;;;5045795;28;20116;-76
2022/12/27 12:37:44;;;;;;;3.88;1.55;;;8.80;95.30;;;;;;5046241;28;20021;-74
2022/12/27 12:40:37;;;;;;;11.20;5.43;;;8.70;94.80;;;;;;5045648;28;20067;-77
2022/12/27 12:43:40;;;;;;;13.65;7.07;;;8.50;95.90;;;;;;5048197;28;20428;-77
2022/12/27 12:46:17;;;;;;;6.18;2.65;;;8.60;96.80;;;;;;5046815;28;20082;-76
2022/12/27 12:48:46;;;;;;;14.90;5.38;;;8.60;95.70;;;;;;5048289;28;20036;-76
2022/12/27 12:51:24;;;;;;;8.98;5.20;;;8.50;95.40;;;;;;5047405;28;20025;-76
2022/12/27 12:54:20;;;;;;;6.07;3.00;;;8.60;95.60;;;;;;5063435;28;20025;-76
2022/12/27 12:57:05;;;;;;;7.55;2.42;;;8.50;95.10;;;;;;5049070;28;20050;-76
2022/12/27 12:59:50;;;;;;;10.23;4.95;;;8.50;94.70;;;;;;5048383;28;20037;-75
2022/12/27 13:02:56;;;;;;;2.47;0.70;;;8.50;95.50;;;;;;5027247;28;20083;-76
2022/12/27 13:05:24;;;;;;;1.65;0.50;;;8.50;96.10;;;;;;5052343;28;20398;-76
2022/12/27 13:07:50;;;;;;;2.22;0.60;;;8.50;96.90;;;;;;5051173;28;20162;-76
2022/12/27 13:10:34;;;;;;;;;;;8.50;95.80;;;;;;5050292;28;20075;-75
2022/12/27 13:13:27;;;;;;;1.95;0.60;;;8.50;96.10;;;;;;5051437;28;19908;-76
2022/12/27 13:16:08;;;;;;;2.15;0.70;;;8.50;95.20;;;;;;5051816;28;20192;-75
2022/12/27 13:18:50;;;;;;;3.30;0.80;;;8.50;96.20;;;;;;5051813;28;20045;-76
2022/12/27 13:21:28;;;;;;;3.95;0.82;;;8.30;96.60;;;;;;5052017;28;20028;-76
2022/12/27 13:24:13;;;;;;;3.90;0.88;;;8.30;97.10;;;;;;5052200;28;20042;-76
2022/12/27 13:27:05;;;;;;;3.38;0.90;;;8.20;97.50;;;;;;5051348;28;20024;-76
2022/12/27 13:29:40;;;;;;;5.63;2.25;;;8.30;95.60;;;;;;5066978;28;20083;-74
2022/12/27 13:32:43;;;;;;;4.57;1.23;;;8.20;94.80;;;;;;5050606;28;20481;-77
2022/12/27 13:35:36;;;;;;;2.60;0.75;;;8.20;95.10;;;;;;5048432;28;20094;-77
2022/12/27 13:38:37;;;;;;;1.23;0.40;;;8.00;96.20;;;;;;5049840;28;20094;-77
2022/12/27 13:41:24;;;;;;;3.47;0.50;;;8.10;95.70;;;;;;5035306;28;20033;-77
2022/12/27 13:43:56;;;;;;;;;;;7.90;96.30;;;;;;5049632;28;20036;-77
2022/12/27 13:46:31;;;;;;;2.70;0.82;;;7.80;96.80;;;;;;5049378;28;19936;-76
2022/12/27 13:49:29;;;;;;;2.50;0.70;;;7.80;98.10;;;;;;5047949;28;20041;-77
2022/12/27 13:52:16;;;;;;;3.90;0.80;;;7.80;97.80;;;;;;5064121;28;20025;-77
2022/12/27 13:55:11;;;;;;;1.88;0.77;;;7.80;97.40;;;;;;5049646;28;20052;-77
2022/12/27 13:58:07;;;;;;;2.88;1.23;;;7.70;96.90;;;;;;5048876;28;20028;-77
2022/12/27 14:00:59;;;;;;;5.88;2.83;;;7.60;98.00;;;;;;5047762;28;20029;-77
2022/12/27 14:03:33;;;;;;;4.00;1.67;;;7.40;98.00;;;;;;5017074;28;20033;-79
2022/12/27 14:06:26;;;;;;;4.28;1.55;;;7.40;97.90;;;;;;5048787;28;20039;-76
2022/12/27 14:09:16;;;;;;;3.90;0.60;;;7.40;97.70;;;;;;5047532;28;20033;-76
2022/12/27 14:12:01;;;;;;;5.82;1.88;;;7.40;96.80;;;;;;5065998;28;20029;-77
2022/12/27 14:14:28;;;;;;;5.75;1.70;;;7.30;98.30;;;;;;5049972;28;20068;-77
2022/12/27 14:17:22;;;;;;;4.18;1.50;;;7.20;98.40;;;;;;5050469;28;20048;-78
2022/12/27 14:20:21;;;;;;;4.18;1.92;;;7.10;98.10;;;;;;5051545;28;20123;-76
2022/12/27 14:23:15;;;;;;;14.57;5.90;;;7.00;98.20;;;;;;5067019;28;20383;-77
2022/12/27 14:26:02;;;;;;;11.43;4.78;;;6.90;99.00;;;;;;5050074;28;20106;-77
2022/12/27 14:29:02;;;;;;;19.77;7.90;;;6.90;99.30;;;;;;5050266;28;20482;-77
2022/12/27 14:32:05;;;;;;;3.55;1.30;;;6.90;98.60;;;;;;5051537;28;20841;-77
2022/12/27 14:35:16;;;;;;;2.75;1.10;;;6.80;98.50;;;;;;5051276;28;20032;-77
2022/12/27 14:38:10;;;;;;;3.15;1.10;;;6.80;98.60;;;;;;5049158;28;20047;-77
2022/12/27 14:41:17;;;;;;;5.35;0.93;;;6.60;98.40;;;;;;5050610;28;20497;-77
2022/12/27 14:43:42;;;;;;;15.43;7.93;;;6.60;98.50;;;;;;5050873;28;20044;-77
2022/12/27 14:46:23;;;;;;;;;;;6.50;99.30;;;;;;5049864;28;20497;-77
2022/12/27 14:48:52;;;;;;;5.03;2.58;;;6.40;99.90;;;;;;5050701;28;19917;-77
2022/12/27 14:51:42;;;;;;;7.43;3.40;;;6.30;99.90;;;;;;5052666;28;20061;-77
2022/12/27 14:54:26;;;;;;;10.98;5.03;;;6.20;99.70;;;;;;5051230;28;20401;-77
2022/12/27 14:57:00;;;;;;;10.55;4.70;;;6.20;99.60;;;;;;5050837;28;20040;-77
2022/12/27 14:59:41;;;;;;;6.78;3.25;;;6.10;99.10;;;;;;5067688;28;20041;-77
2022/12/27 15:02:29;;;;;;;5.80;2.13;;;6.20;98.60;;;;;;5052446;28;20036;-77
2022/12/27 15:05:12;;;;;;;6.30;1.80;;;6.00;98.50;;;;;;5067311;28;20036;-77
2022/12/27 15:07:52;;;;;;;8.38;2.70;;;6.10;98.10;;;;;;5052138;28;20032;-77
2022/12/27 15:10:43;;;;;;;7.43;2.80;;;6.00;98.10;;;;;;5050258;28;20035;-77
2022/12/27 15:13:35;;;;;;;3.75;1.33;;;6.00;97.50;;;;;;5052803;28;20043;-77
2022/12/27 15:16:25;;;;;;;6.05;2.17;;;6.00;97.50;;;;;;5051396;28;20124;-77
2022/12/27 15:19:12;;;;;;;5.05;2.55;;;5.90;97.60;;;;;;5050495;28;20072;-77
2022/12/27 15:22:06;;;;;;;5.78;1.60;;;5.80;97.60;;;;;;5050086;28;20069;-77
2022/12/27 15:25:18;;;;;;;9.05;3.30;;;5.80;97.60;;;;;;5048969;28;20486;-76
2022/12/27 15:27:58;;;;;;;11.57;4.65;;;5.70;97.60;;;;;;5037683;28;20116;-76
2022/12/27 15:30:49;;;;;;;16.55;4.65;;;5.70;97.80;;;;;;5052284;28;20082;-77